createdAt,value
2019-03-24T00:01:44.853Z,27.07
2019-03-24T00:04:14.542Z,28.13
2019-03-24T00:06:44.045Z,28.57
2019-03-24T00:09:13.484Z,27.67
2019-03-24T00:11:42.801Z,26.27
2019-03-24T00:14:12.467Z,25.93
2019-03-24T00:16:42.061Z,27.90
2019-03-24T00:19:11.403Z,27.17
2019-03-24T00:21:41.168Z,25.80
2019-03-24T00:24:10.423Z,26.33
2019-03-24T00:26:40.209Z,24.90
2019-03-24T00:29:09.963Z,24.80
2019-03-24T00:31:39.496Z,25.37
2019-03-24T00:34:10.357Z,24.83
2019-03-24T00:36:39.901Z,25.43
2019-03-24T00:39:09.269Z,25.33
2019-03-24T00:41:40.837Z,25.00
2019-03-24T00:44:10.342Z,22.20
2019-03-24T00:46:39.936Z,25.00
2019-03-24T00:49:09.401Z,25.70
2019-03-24T00:51:38.849Z,24.33
2019-03-24T00:54:08.349Z,22.40
2019-03-24T00:56:38.071Z,25.23
2019-03-24T00:59:07.301Z,25.20
2019-03-24T01:01:36.931Z,25.03
2019-03-24T01:04:06.758Z,23.17
2019-03-24T01:06:36.157Z,22.60
2019-03-24T01:09:07.384Z,21.83
2019-03-24T01:11:36.925Z,22.50
2019-03-24T01:14:06.433Z,22.20
2019-03-24T01:16:35.770Z,21.07
2019-03-24T01:19:05.233Z,22.10
2019-03-24T01:21:34.557Z,22.63
2019-03-24T01:24:04.734Z,22.70
2019-03-24T01:26:34.757Z,22.80
2019-03-24T01:29:04.229Z,19.90
2019-03-24T01:31:34.421Z,21.33
2019-03-24T01:34:04.202Z,22.90
2019-03-24T01:36:36.731Z,20.20
2019-03-24T01:39:06.522Z,20.03
2019-03-24T01:41:35.994Z,18.80
2019-03-24T01:44:10.058Z,18.93
2019-03-24T01:46:39.409Z,21.90
2019-03-24T01:49:08.660Z,20.57
2019-03-24T01:51:39.296Z,20.03
2019-03-24T01:54:08.690Z,20.73
2019-03-24T01:56:38.617Z,20.47
2019-03-24T01:59:08.171Z,19.63
2019-03-24T02:01:37.987Z,20.83
2019-03-24T02:04:07.303Z,17.00
2019-03-24T02:06:38.602Z,18.80
2019-03-24T02:09:09.048Z,19.47
2019-03-24T02:11:39.165Z,17.77
2019-03-24T02:14:09.027Z,17.13
2019-03-24T02:16:39.268Z,17.37
2019-03-24T02:19:08.811Z,18.40
2019-03-24T02:21:38.415Z,17.60
2019-03-24T02:24:08.074Z,17.93
2019-03-24T02:26:38.501Z,17.43
2019-03-24T02:29:08.481Z,17.37
2019-03-24T02:31:37.737Z,18.17
2019-03-24T02:34:07.354Z,17.40
2019-03-24T02:36:36.961Z,19.27
2019-03-24T02:39:07.077Z,17.40
2019-03-24T02:41:37.235Z,18.30
2019-03-24T02:44:06.567Z,18.50
2019-03-24T02:46:36.102Z,16.57
2019-03-24T02:49:05.334Z,18.33
2019-03-24T02:51:34.876Z,16.20
2019-03-24T02:54:04.364Z,19.40
2019-03-24T02:56:33.577Z,17.23
2019-03-24T02:59:02.835Z,18.10
2019-03-24T03:01:32.486Z,18.30
2019-03-24T03:04:01.735Z,19.00
2019-03-24T03:06:31.113Z,16.57
2019-03-24T03:09:00.926Z,16.57
2019-03-24T03:11:30.164Z,18.77
2019-03-24T03:13:59.754Z,20.50
2019-03-24T03:16:38.499Z,17.43
2019-03-24T03:19:00.209Z,17.80
2019-03-24T03:21:29.535Z,19.00
2019-03-24T03:23:58.759Z,17.40
2019-03-24T03:26:28.009Z,20.90
2019-03-24T03:28:57.287Z,20.87
2019-03-24T03:31:26.607Z,17.67
2019-03-24T03:33:55.874Z,17.47
2019-03-24T03:36:25.375Z,19.40
2019-03-24T03:38:54.917Z,19.70
2019-03-24T03:41:24.168Z,18.10
2019-03-24T03:43:53.781Z,19.70
2019-03-24T03:46:23.305Z,18.77
2019-03-24T03:48:52.770Z,19.90
2019-03-24T03:51:22.895Z,18.13
2019-03-24T03:53:53.142Z,18.80
2019-03-24T03:56:22.356Z,19.83
2019-03-24T03:58:51.918Z,17.30
2019-03-24T04:01:21.238Z,18.37
2019-03-24T04:03:50.562Z,19.40
2019-03-24T04:06:20.178Z,18.27
2019-03-24T04:08:50.308Z,17.10
2019-03-24T04:11:19.567Z,18.57
2019-03-24T04:13:49.973Z,16.53
2019-03-24T04:16:19.376Z,17.87
2019-03-24T04:18:48.860Z,17.80
2019-03-24T04:21:18.393Z,16.93
2019-03-24T04:23:48.229Z,17.37
2019-03-24T04:26:17.920Z,16.60
2019-03-24T04:28:47.792Z,17.10
2019-03-24T04:31:18.198Z,16.60
2019-03-24T04:33:47.514Z,18.90
2019-03-24T04:36:16.819Z,18.23
2019-03-24T04:38:46.690Z,16.47
2019-03-24T04:41:16.165Z,16.17
2019-03-24T04:43:46.422Z,16.77
2019-03-24T04:46:16.065Z,17.57
2019-03-24T04:48:46.349Z,16.87
2019-03-24T04:51:16.297Z,17.37
2019-03-24T04:53:45.805Z,18.03
2019-03-24T04:56:15.064Z,17.07
2019-03-24T04:58:44.316Z,16.43
2019-03-24T05:01:13.785Z,16.27
2019-03-24T05:03:43.821Z,17.53
2019-03-24T05:06:13.403Z,16.57
2019-03-24T05:08:43.276Z,14.87
2019-03-24T05:11:15.939Z,17.30
2019-03-24T05:13:45.612Z,15.40
2019-03-24T05:16:15.145Z,16.30
2019-03-24T05:18:45.011Z,15.37
2019-03-24T05:21:14.894Z,14.57
2019-03-24T05:23:46.079Z,15.53
2019-03-24T05:26:16.324Z,14.97
2019-03-24T05:28:45.940Z,15.40
2019-03-24T05:31:15.539Z,15.13
2019-03-24T05:33:44.751Z,16.30
2019-03-24T05:36:14.595Z,14.70
2019-03-24T05:38:44.297Z,15.17
2019-03-24T05:41:14.396Z,16.30
2019-03-24T05:43:43.891Z,17.23
2019-03-24T05:46:13.489Z,15.47
2019-03-24T05:48:43.013Z,16.30
2019-03-24T05:51:13.360Z,16.83
2019-03-24T05:53:42.986Z,16.83
2019-03-24T05:56:12.649Z,17.57
2019-03-24T05:58:42.150Z,17.30
2019-03-24T06:01:11.427Z,16.70
2019-03-24T06:03:40.940Z,14.33
2019-03-24T06:06:10.489Z,15.50
2019-03-24T06:08:40.205Z,15.27
2019-03-24T06:11:10.102Z,16.97
2019-03-24T06:13:39.565Z,16.60
2019-03-24T06:16:09.056Z,15.63
2019-03-24T06:18:38.728Z,18.97
2019-03-24T06:21:08.371Z,16.50
2019-03-24T06:23:37.855Z,18.83
2019-03-24T06:26:07.341Z,18.07
2019-03-24T06:28:36.991Z,17.20
2019-03-24T06:31:06.525Z,19.33
2019-03-24T06:33:36.123Z,17.20
2019-03-24T06:36:05.682Z,18.20
2019-03-24T06:38:35.864Z,16.97
2019-03-24T06:41:05.443Z,20.90
2019-03-24T06:43:35.331Z,17.97
2019-03-24T06:46:04.936Z,19.10
2019-03-24T06:48:34.257Z,22.90
2019-03-24T06:51:03.526Z,17.53
2019-03-24T06:53:33.462Z,20.17
2019-03-24T06:56:03.001Z,21.80
2019-03-24T06:58:32.286Z,18.50
2019-03-24T07:01:02.418Z,20.20
2019-03-24T07:03:32.751Z,19.63
2019-03-24T07:06:02.633Z,19.87
2019-03-24T07:08:31.826Z,20.13
2019-03-24T07:11:01.334Z,21.00
2019-03-24T07:13:30.877Z,18.93
2019-03-24T07:16:00.164Z,22.80
2019-03-24T07:18:30.784Z,22.90
2019-03-24T07:21:00.395Z,21.13
2019-03-24T07:23:30.055Z,24.20
2019-03-24T07:25:59.996Z,22.47
2019-03-24T07:28:29.490Z,20.50
2019-03-24T07:30:59.278Z,22.97
2019-03-24T07:33:28.906Z,23.30
2019-03-24T07:35:58.102Z,22.50
2019-03-24T07:38:27.651Z,22.77
2019-03-24T07:40:57.917Z,25.63
2019-03-24T07:43:27.173Z,22.80
2019-03-24T07:45:56.483Z,24.00
2019-03-24T07:48:25.785Z,27.60
2019-03-24T07:50:55.331Z,25.80
2019-03-24T07:53:25.121Z,26.17
2019-03-24T07:55:54.757Z,24.60
2019-03-24T07:58:24.441Z,26.87
2019-03-24T08:00:53.947Z,25.23
2019-03-24T08:03:23.528Z,25.40
2019-03-24T08:05:52.728Z,24.80
2019-03-24T08:08:22.243Z,29.40
2019-03-24T08:10:51.956Z,26.47
2019-03-24T08:13:21.561Z,25.43
2019-03-24T08:15:51.121Z,27.10
2019-03-24T08:18:29.609Z,25.13
2019-03-24T08:20:51.962Z,26.17
2019-03-24T08:23:21.529Z,28.20
2019-03-24T08:25:51.476Z,24.20
2019-03-24T08:28:23.103Z,25.83
2019-03-24T08:30:52.401Z,26.07
2019-03-24T08:33:22.242Z,26.80
2019-03-24T08:35:51.920Z,26.33
2019-03-24T08:38:22.258Z,24.77
2019-03-24T08:40:52.135Z,25.20
2019-03-24T08:43:22.136Z,24.37
2019-03-24T08:45:52.661Z,24.60
2019-03-24T08:48:22.643Z,24.57
2019-03-24T08:50:52.639Z,23.77
2019-03-24T08:53:23.388Z,26.23
2019-03-24T08:55:56.522Z,25.43
2019-03-24T08:58:26.513Z,25.30
2019-03-24T09:00:56.550Z,25.03
2019-03-24T09:03:26.369Z,25.53
2019-03-24T09:05:56.861Z,26.33
2019-03-24T09:08:26.789Z,23.13
2019-03-24T09:10:56.314Z,26.50
2019-03-24T09:13:25.997Z,26.50
2019-03-24T09:16:16.436Z,26.33
2019-03-24T09:18:52.884Z,28.00
2019-03-24T09:21:19.658Z,27.70
2019-03-24T09:23:50.670Z,27.30
2019-03-24T09:26:20.672Z,29.33
2019-03-24T09:28:50.182Z,26.47
2019-03-24T09:31:19.817Z,27.80
2019-03-24T09:33:49.357Z,28.87
2019-03-24T09:36:18.585Z,26.57
2019-03-24T09:38:48.179Z,25.80
2019-03-24T09:41:18.181Z,27.13
2019-03-24T09:43:47.967Z,27.03
2019-03-24T09:46:17.900Z,28.83
2019-03-24T09:48:47.158Z,28.17
2019-03-24T09:51:17.581Z,27.70
2019-03-24T09:53:48.927Z,30.13
2019-03-24T09:56:19.290Z,30.37
2019-03-24T09:58:48.908Z,29.17
2019-03-24T10:01:18.974Z,28.47
2019-03-24T10:03:48.201Z,30.27
2019-03-24T10:06:19.930Z,31.00
2019-03-24T10:08:49.642Z,30.80
2019-03-24T10:11:19.277Z,33.43
2019-03-24T10:13:48.727Z,32.80
2019-03-24T10:16:19.083Z,33.63
2019-03-24T10:18:48.612Z,32.47
2019-03-24T10:21:17.875Z,31.53
2019-03-24T10:23:48.243Z,34.50
2019-03-24T10:26:17.485Z,31.57
2019-03-24T10:28:47.601Z,34.80
2019-03-24T10:31:16.900Z,30.80
2019-03-24T10:33:46.473Z,32.90
2019-03-24T10:36:16.200Z,34.80
2019-03-24T10:38:45.940Z,35.67
2019-03-24T10:41:15.201Z,34.50
2019-03-24T10:43:44.766Z,35.57
2019-03-24T10:46:14.478Z,33.30
2019-03-24T10:48:44.496Z,33.97
2019-03-24T10:51:14.054Z,35.97
2019-03-24T10:53:44.427Z,34.20
2019-03-24T10:56:13.725Z,37.10
2019-03-24T10:58:43.838Z,33.43
2019-03-24T11:01:13.822Z,35.30
2019-03-24T11:03:44.168Z,37.17
2019-03-24T11:06:13.724Z,35.77
2019-03-24T11:08:43.277Z,35.93
2019-03-24T11:11:12.819Z,36.20
2019-03-24T11:13:47.022Z,33.90
2019-03-24T11:16:16.943Z,35.13
2019-03-24T11:18:46.377Z,34.60
2019-03-24T11:21:16.273Z,36.27
2019-03-24T11:23:46.049Z,38.03
2019-03-24T11:26:15.304Z,36.47
2019-03-24T11:28:44.873Z,39.00
2019-03-24T11:31:14.470Z,37.97
2019-03-24T11:33:43.822Z,36.90
2019-03-24T11:36:13.386Z,35.70
2019-03-24T11:38:43.117Z,36.43
2019-03-24T11:41:12.942Z,36.10
2019-03-24T11:43:42.442Z,38.00
2019-03-24T11:46:11.717Z,37.50
2019-03-24T11:48:41.753Z,36.27
2019-03-24T11:51:11.641Z,36.70
2019-03-24T11:53:40.933Z,35.67
2019-03-24T11:56:10.380Z,37.60
2019-03-24T11:58:40.358Z,36.70
2019-03-24T12:01:09.974Z,37.53
2019-03-24T12:03:39.331Z,35.60
2019-03-24T12:06:14.367Z,37.77
2019-03-24T12:08:40.683Z,35.20
2019-03-24T12:11:10.670Z,36.60
2019-03-24T12:13:39.935Z,34.23
2019-03-24T12:16:09.302Z,33.67
2019-03-24T12:18:38.977Z,36.03
2019-03-24T12:21:11.582Z,33.07
2019-03-24T12:23:42.015Z,35.30
2019-03-24T12:46:05.397Z,34.57
2019-03-24T12:48:41.297Z,34.30
2019-03-24T12:51:10.850Z,32.70
2019-03-24T12:53:40.151Z,36.73
2019-03-24T12:56:09.988Z,35.90
2019-03-24T12:58:40.424Z,35.73
2019-03-24T13:01:10.877Z,35.30
2019-03-24T13:03:40.800Z,34.20
2019-03-24T13:06:10.692Z,36.97
2019-03-24T13:08:40.721Z,32.00
2019-03-24T13:11:10.264Z,33.63
2019-03-24T13:13:39.826Z,34.30
2019-03-24T13:16:09.165Z,34.73
2019-03-24T13:18:39.421Z,34.47
2019-03-24T13:21:09.103Z,33.80
2019-03-24T13:23:38.407Z,34.07
2019-03-24T13:26:07.877Z,35.30
2019-03-24T13:28:37.398Z,35.07
2019-03-24T13:31:07.031Z,34.37
2019-03-24T13:33:36.990Z,36.73
2019-03-24T13:36:10.940Z,34.03
2019-03-24T13:38:40.694Z,36.03
2019-03-24T13:41:10.610Z,36.20
2019-03-24T13:43:40.585Z,33.57
2019-03-24T13:46:10.412Z,34.17
2019-03-24T13:48:39.881Z,33.27
2019-03-24T13:51:09.423Z,36.57
2019-03-24T13:53:39.477Z,37.27
2019-03-24T13:56:08.863Z,32.93
2019-03-24T13:58:38.159Z,34.50
2019-03-24T14:01:07.869Z,33.50
2019-03-24T14:03:38.211Z,35.80
2019-03-24T14:06:07.780Z,32.80
2019-03-24T14:08:37.808Z,32.60
2019-03-24T14:11:07.145Z,33.20
2019-03-24T14:13:37.417Z,31.10
2019-03-24T14:16:07.068Z,34.30
2019-03-24T14:18:36.791Z,32.10
2019-03-24T14:21:06.397Z,27.70
2019-03-24T14:23:36.826Z,34.00
2019-03-24T14:26:06.491Z,30.97
2019-03-24T14:28:35.825Z,30.83
2019-03-24T14:31:05.737Z,32.83
2019-03-24T14:33:35.739Z,33.63
2019-03-24T14:36:05.678Z,31.13
2019-03-24T14:38:35.331Z,33.93
2019-03-24T14:41:05.422Z,30.60
2019-03-24T14:43:35.124Z,31.10
2019-03-24T14:46:04.843Z,32.47
2019-03-24T14:48:36.229Z,31.90
2019-03-24T14:51:06.823Z,32.70
2019-03-24T14:53:36.523Z,31.30
2019-03-24T14:56:06.169Z,31.73
2019-03-24T14:58:36.255Z,34.20
2019-03-24T15:01:05.873Z,32.63
2019-03-24T15:03:35.481Z,32.63
2019-03-24T15:06:04.871Z,28.87
2019-03-24T15:08:34.421Z,30.90
2019-03-24T15:11:04.319Z,29.50
2019-03-24T15:13:34.588Z,32.60
2019-03-24T15:16:03.861Z,29.40
2019-03-24T15:18:33.425Z,32.53
2019-03-24T15:21:05.869Z,32.23
2019-03-24T15:23:33.868Z,32.17
2019-03-24T15:26:03.405Z,32.50
2019-03-24T15:28:33.460Z,30.23
2019-03-24T15:31:03.683Z,29.10
2019-03-24T15:33:33.286Z,32.20
2019-03-24T15:36:03.748Z,29.70
2019-03-24T15:38:33.115Z,29.80
2019-03-24T15:41:02.365Z,28.03
2019-03-24T15:43:31.953Z,28.07
2019-03-24T15:46:01.532Z,28.00
2019-03-24T15:48:31.190Z,32.10
2019-03-24T15:51:01.017Z,29.27
2019-03-24T15:53:31.175Z,30.63
2019-03-24T15:56:01.166Z,32.10
2019-03-24T15:58:31.390Z,29.70
2019-03-24T16:01:00.990Z,29.40
2019-03-24T16:03:30.537Z,28.10
2019-03-24T16:06:00.614Z,29.20
2019-03-24T16:08:31.890Z,27.37
2019-03-24T16:11:01.658Z,26.33
2019-03-24T16:13:41.459Z,27.80
2019-03-24T16:16:11.622Z,29.73
2019-03-24T16:18:41.413Z,30.87
2019-03-24T16:21:10.910Z,29.83
2019-03-24T16:23:40.716Z,27.50
2019-03-24T16:26:09.968Z,28.20
2019-03-24T16:28:40.119Z,29.87
2019-03-24T16:31:09.739Z,28.30
2019-03-24T16:33:39.450Z,30.57
2019-03-24T16:36:09.249Z,28.37
2019-03-24T16:38:48.579Z,30.33
2019-03-24T16:41:10.181Z,30.00
2019-03-24T16:43:39.484Z,30.27
2019-03-24T16:46:09.211Z,30.10
2019-03-24T16:48:38.976Z,34.43
2019-03-24T16:51:08.609Z,31.70
2019-03-24T16:53:38.283Z,34.60
2019-03-24T16:56:08.382Z,33.17
2019-03-24T16:58:38.576Z,34.57
2019-03-24T17:01:08.213Z,36.80
2019-03-24T17:03:38.096Z,34.87
2019-03-24T17:06:10.114Z,34.93
2019-03-24T17:08:39.999Z,33.10
2019-03-24T17:11:09.647Z,35.20
2019-03-24T17:13:39.906Z,31.60
2019-03-24T17:16:09.293Z,33.30
2019-03-24T17:18:39.383Z,29.90
2019-03-24T17:21:09.759Z,26.27
2019-03-24T17:23:39.837Z,32.40
2019-03-24T17:26:09.199Z,33.83
2019-03-24T17:28:38.984Z,34.50
2019-03-24T17:31:09.103Z,32.20
2019-03-24T17:33:39.185Z,32.10
2019-03-24T17:36:08.852Z,33.27
2019-03-24T17:38:38.685Z,32.97
2019-03-24T17:41:08.323Z,32.83
2019-03-24T17:43:38.372Z,32.00
2019-03-24T17:46:08.303Z,33.57
2019-03-24T17:48:38.009Z,33.57
2019-03-24T17:51:08.265Z,35.43
2019-03-24T17:53:37.973Z,34.60
2019-03-24T17:56:08.451Z,38.87
2019-03-24T17:58:38.890Z,40.53
2019-03-24T18:01:08.885Z,38.70
2019-03-24T18:03:38.861Z,37.40
2019-03-24T18:06:09.494Z,41.60
2019-03-24T18:08:39.154Z,39.80
2019-03-24T18:11:09.526Z,42.10
2019-03-24T18:13:38.876Z,38.63
2019-03-24T18:16:08.711Z,41.60
2019-03-24T18:18:38.094Z,41.23
2019-03-24T18:21:08.206Z,42.93
2019-03-24T18:23:37.797Z,40.80
2019-03-24T18:26:07.480Z,43.03
2019-03-24T18:28:37.825Z,45.73
2019-03-24T18:31:07.657Z,44.40
2019-03-24T18:33:37.786Z,40.40
2019-03-24T18:36:08.388Z,41.77
2019-03-24T18:38:38.022Z,44.33
2019-03-24T18:41:07.534Z,45.97
2019-03-24T18:43:37.436Z,43.77
2019-03-24T18:46:07.143Z,46.80
2019-03-24T19:06:15.624Z,42.60
2019-03-24T19:08:53.455Z,43.70
2019-03-24T19:11:23.999Z,42.77
2019-03-24T19:13:54.499Z,42.57
2019-03-24T19:16:40.800Z,43.37
2019-03-24T19:19:10.438Z,41.10
2019-03-24T19:21:44.557Z,43.53
2019-03-24T19:24:17.777Z,40.07
2019-03-24T19:26:48.670Z,42.50
2019-03-24T19:29:18.502Z,41.53
2019-03-24T19:31:49.144Z,39.97
2019-03-24T19:34:18.610Z,40.87
2019-03-24T19:36:48.779Z,38.60
2019-03-24T19:39:18.862Z,42.50
2019-03-24T19:41:48.560Z,36.63
2019-03-24T19:44:18.883Z,42.30
2019-03-24T19:46:48.571Z,43.17
2019-03-24T19:49:18.179Z,42.50
2019-03-24T19:51:48.329Z,39.33
2019-03-24T19:54:18.167Z,40.80
2019-03-24T19:56:53.736Z,44.13
2019-03-24T19:59:29.646Z,42.40
2019-03-24T20:01:59.615Z,42.73
2019-03-24T20:04:29.553Z,46.10
2019-03-24T20:07:01.388Z,42.47
2019-03-24T20:09:31.222Z,43.50
2019-03-24T20:12:01.279Z,43.07
2019-03-24T20:14:31.276Z,43.90
2019-03-24T20:17:01.350Z,39.87
2019-03-24T20:19:31.735Z,43.53
2019-03-24T20:22:02.003Z,44.13
2019-03-24T20:24:31.357Z,45.60
2019-03-24T20:27:00.824Z,46.27
2019-03-24T20:29:30.766Z,44.90
2019-03-24T20:32:00.630Z,47.57
2019-03-24T20:34:30.622Z,47.97
2019-03-24T20:37:00.786Z,44.57
2019-03-24T20:39:31.251Z,48.57
2019-03-24T20:42:01.562Z,49.70
2019-03-24T20:44:32.027Z,48.17
2019-03-24T20:47:01.678Z,51.20
2019-03-24T20:49:31.610Z,48.50
2019-03-24T20:52:02.079Z,49.80
2019-03-24T20:54:31.785Z,47.30
2019-03-24T20:57:02.077Z,48.03
2019-03-24T20:59:32.440Z,47.13
2019-03-24T21:02:02.117Z,48.97
2019-03-24T21:04:31.975Z,47.27
2019-03-24T21:07:02.420Z,44.47
2019-03-24T21:09:32.984Z,49.20
2019-03-24T21:12:05.974Z,48.47
2019-03-24T21:14:36.549Z,47.97
2019-03-24T21:17:07.085Z,48.23
2019-03-24T21:19:37.898Z,45.87
2019-03-24T21:22:07.885Z,38.73
2019-03-24T21:24:38.082Z,45.77
2019-03-24T21:27:08.129Z,50.50
2019-03-24T21:29:38.355Z,44.70
2019-03-24T21:32:08.535Z,43.83
2019-03-24T21:34:38.688Z,45.93
2019-03-24T21:37:08.742Z,49.33
2019-03-24T21:39:38.570Z,46.07
2019-03-24T21:42:07.924Z,44.10
2019-03-24T21:44:38.189Z,45.67
2019-03-24T21:47:07.569Z,45.50
2019-03-24T21:49:37.035Z,47.53
2019-03-24T21:52:06.642Z,46.87
2019-03-24T21:54:36.421Z,49.13
2019-03-24T21:57:07.097Z,43.37
2019-03-24T21:59:37.270Z,50.57
2019-03-24T22:02:07.264Z,46.27
2019-03-24T22:04:37.766Z,42.80
2019-03-24T22:07:07.870Z,39.67
2019-03-24T22:09:37.515Z,44.33
2019-03-24T22:12:07.016Z,44.03
2019-03-24T22:14:37.512Z,45.97
2019-03-24T22:17:07.121Z,42.10
2019-03-24T22:19:38.660Z,44.57
2019-03-24T22:22:08.551Z,47.03
2019-03-24T22:24:38.741Z,44.80
2019-03-24T22:27:08.423Z,45.57
2019-03-24T22:29:38.263Z,42.73
2019-03-24T22:32:08.207Z,45.27
2019-03-24T22:34:37.926Z,44.97
2019-03-24T22:37:15.436Z,45.23
2019-03-24T22:39:38.587Z,44.70
2019-03-24T22:42:08.194Z,43.50
2019-03-24T22:44:38.246Z,44.10
2019-03-24T22:47:07.873Z,44.80
2019-03-24T22:49:37.915Z,46.83
2019-03-24T22:52:07.877Z,48.87
2019-03-24T22:54:38.089Z,45.17
2019-03-24T22:57:08.161Z,45.10
2019-03-24T22:59:38.644Z,45.30
2019-03-24T23:02:08.320Z,47.07
2019-03-24T23:04:37.560Z,46.00
2019-03-24T23:07:06.792Z,47.90
2019-03-24T23:09:36.882Z,50.77
2019-03-24T23:12:06.826Z,51.80
2019-03-24T23:14:36.548Z,46.83
2019-03-24T23:17:06.165Z,48.40
2019-03-24T23:19:35.686Z,44.97
2019-03-24T23:22:05.267Z,49.87
2019-03-24T23:24:36.241Z,45.97
2019-03-24T23:27:05.718Z,45.07
2019-03-24T23:29:35.195Z,41.80
2019-03-24T23:32:04.730Z,44.57
2019-03-24T23:34:34.373Z,46.80
2019-03-24T23:37:03.785Z,44.00
2019-03-24T23:39:33.803Z,46.53
2019-03-24T23:42:03.657Z,45.00
2019-03-24T23:44:32.998Z,46.43
2019-03-24T23:47:02.337Z,45.77
2019-03-24T23:49:32.454Z,46.50
2019-03-24T23:52:02.180Z,42.40
2019-03-24T23:54:32.184Z,46.60
2019-03-24T23:57:01.827Z,43.87
2019-03-24T23:59:31.155Z,43.90
